createdAt,value
2022-12-29T00:00:35.256Z,4.10
2022-12-29T00:03:42.137Z,4.53
2022-12-29T00:06:47.584Z,5.90
2022-12-29T00:09:52.855Z,5.40
2022-12-29T00:13:15.644Z,5.07
2022-12-29T00:16:20.946Z,5.77
2022-12-29T00:19:45.144Z,5.63
2022-12-29T00:23:08.547Z,5.90
2022-12-29T00:26:34.673Z,6.93
2022-12-29T00:29:57.455Z,6.43
2022-12-29T00:33:20.570Z,5.20
2022-12-29T00:36:30.025Z,7.93
2022-12-29T00:39:54.655Z,5.77
2022-12-29T00:43:17.103Z,6.03
2022-12-29T00:46:22.815Z,7.33
2022-12-29T00:49:36.732Z,5.50
2022-12-29T00:52:44.480Z,4.80
2022-12-29T00:55:49.463Z,4.63
2022-12-29T00:58:54.713Z,5.30
2022-12-29T01:02:00.495Z,3.83
2022-12-29T01:05:07.878Z,3.87
2022-12-29T01:08:15.496Z,4.00
2022-12-29T01:11:19.383Z,4.30
2022-12-29T01:14:25.109Z,4.50
2022-12-29T01:17:30.275Z,4.40
2022-12-29T01:20:35.534Z,4.90
2022-12-29T01:23:46.490Z,4.47
2022-12-29T01:26:52.855Z,4.77
2022-12-29T01:29:58.407Z,4.07
2022-12-29T01:33:03.620Z,4.37
2022-12-29T01:36:12.608Z,3.87
2022-12-29T01:39:19.587Z,3.97
2022-12-29T01:42:26.927Z,3.50
2022-12-29T01:45:32.343Z,4.00
2022-12-29T01:48:37.670Z,3.87
2022-12-29T01:51:48.115Z,3.53
2022-12-29T01:54:56.436Z,3.93
2022-12-29T01:58:03.737Z,3.30
2022-12-29T02:01:10.262Z,3.40
2022-12-29T02:04:16.067Z,2.70
2022-12-29T02:07:25.423Z,2.63
2022-12-29T02:10:34.347Z,2.43
2022-12-29T02:13:39.750Z,2.10
2022-12-29T02:16:57.242Z,2.17
2022-12-29T02:20:44.877Z,2.30
2022-12-29T02:24:37.826Z,2.77
2022-12-29T02:28:02.561Z,2.47
2022-12-29T02:31:16.015Z,2.73
2022-12-29T02:34:28.040Z,2.30
2022-12-29T02:37:37.804Z,2.40
2022-12-29T02:40:48.640Z,2.60
2022-12-29T02:43:59.547Z,2.63
2022-12-29T02:47:12.293Z,2.60
2022-12-29T02:50:21.614Z,3.07
2022-12-29T02:53:41.196Z,3.27
2022-12-29T02:56:46.663Z,3.30
2022-12-29T02:59:55.566Z,3.57
2022-12-29T03:03:21.303Z,3.67
2022-12-29T03:06:35.884Z,3.57
2022-12-29T03:09:49.902Z,3.87
2022-12-29T03:13:16.861Z,4.07
2022-12-29T03:16:27.092Z,4.23
2022-12-29T03:19:37.291Z,3.93
2022-12-29T03:22:45.793Z,4.83
2022-12-29T03:25:58.116Z,4.47
2022-12-29T03:29:04.192Z,4.63
2022-12-29T03:32:10.900Z,5.30
2022-12-29T03:35:21.586Z,4.63
2022-12-29T03:38:30.278Z,5.57
2022-12-29T03:41:36.522Z,5.23
2022-12-29T03:44:43.800Z,4.70
2022-12-29T03:47:51.329Z,5.53
2022-12-29T03:50:58.775Z,5.40
2022-12-29T03:54:04.703Z,5.33
2022-12-29T03:57:10.509Z,4.90
2022-12-29T04:00:44.897Z,4.93
2022-12-29T04:03:50.839Z,5.07
2022-12-29T04:06:57.804Z,5.00
2022-12-29T04:10:02.998Z,5.60
2022-12-29T04:13:11.566Z,5.20
2022-12-29T04:16:18.099Z,5.03
2022-12-29T04:19:23.735Z,4.47
2022-12-29T04:22:30.543Z,4.90
2022-12-29T04:25:38.986Z,5.30
2022-12-29T04:28:47.320Z,5.23
2022-12-29T04:32:11.130Z,4.87
2022-12-29T04:35:22.222Z,5.37
2022-12-29T04:38:29.783Z,5.20
2022-12-29T04:41:40.518Z,5.00
2022-12-29T04:44:51.867Z,4.80
2022-12-29T04:48:25.934Z,5.03
2022-12-29T04:51:51.918Z,4.97
2022-12-29T04:54:59.406Z,5.13
2022-12-29T04:58:04.989Z,4.83
2022-12-29T05:01:14.653Z,4.37
2022-12-29T05:04:20.276Z,5.07
2022-12-29T05:07:26.132Z,4.47
2022-12-29T05:10:36.887Z,5.90
2022-12-29T05:13:48.636Z,5.23
2022-12-29T05:16:56.042Z,4.93
2022-12-29T05:20:07.018Z,5.03
2022-12-29T05:23:14.891Z,5.07
2022-12-29T05:26:22.513Z,5.20
2022-12-29T05:29:53.600Z,4.33
2022-12-29T05:32:59.447Z,4.37
2022-12-29T05:36:07.900Z,3.77
2022-12-29T05:39:15.370Z,4.10
2022-12-29T05:42:26.198Z,4.67
2022-12-29T05:45:52.303Z,4.27
2022-12-29T05:49:13.933Z,3.80
2022-12-29T05:52:42.551Z,4.73
2022-12-29T05:55:49.297Z,4.40
2022-12-29T05:58:57.238Z,4.07
2022-12-29T06:02:03.965Z,4.30
2022-12-29T06:05:11.356Z,4.30
2022-12-29T06:08:18.986Z,3.60
2022-12-29T06:11:24.330Z,4.23
2022-12-29T06:14:36.089Z,4.17
2022-12-29T06:17:43.086Z,3.87
2022-12-29T06:20:48.842Z,4.10
2022-12-29T06:23:56.577Z,4.40
2022-12-29T06:27:02.154Z,4.23
2022-12-29T06:30:13.324Z,3.83
2022-12-29T06:33:22.319Z,3.57
2022-12-29T06:36:29.491Z,4.47
2022-12-29T06:39:37.068Z,4.33
2022-12-29T06:42:45.865Z,4.50
2022-12-29T06:46:16.096Z,4.07
2022-12-29T06:49:22.592Z,5.47
2022-12-29T06:52:29.541Z,4.77
2022-12-29T06:55:35.721Z,4.90
2022-12-29T06:58:42.309Z,4.83
2022-12-29T07:01:52.520Z,5.40
2022-12-29T07:04:58.681Z,5.57
2022-12-29T07:08:09.338Z,5.50
2022-12-29T07:11:14.961Z,5.57
2022-12-29T07:14:20.439Z,6.27
2022-12-29T07:17:27.895Z,6.50
2022-12-29T07:20:33.032Z,6.63
2022-12-29T07:23:38.252Z,6.73
2022-12-29T07:26:43.411Z,7.00
2022-12-29T07:29:48.938Z,6.63
2022-12-29T07:32:56.074Z,6.47
2022-12-29T07:36:01.891Z,6.20
2022-12-29T07:39:11.180Z,5.87
2022-12-29T07:42:16.808Z,6.17
2022-12-29T07:45:29.349Z,6.60
2022-12-29T07:48:59.788Z,6.17
2022-12-29T07:52:04.957Z,6.17
2022-12-29T07:55:12.843Z,4.93
2022-12-29T07:58:17.920Z,5.53
2022-12-29T08:01:24.777Z,6.30
2022-12-29T08:04:31.439Z,5.43
2022-12-29T08:07:36.620Z,5.47
2022-12-29T08:10:41.929Z,5.00
2022-12-29T08:13:47.378Z,5.27
2022-12-29T08:16:52.437Z,5.57
2022-12-29T08:19:59.005Z,5.00
2022-12-29T08:23:04.329Z,4.10
2022-12-29T08:26:09.188Z,4.30
2022-12-29T08:29:16.452Z,4.03
2022-12-29T08:32:21.701Z,4.13
2022-12-29T08:35:28.409Z,4.20
2022-12-29T08:38:33.423Z,3.80
2022-12-29T08:41:38.298Z,3.53
2022-12-29T08:44:43.544Z,4.03
2022-12-29T08:47:48.909Z,3.70
2022-12-29T08:50:56.123Z,4.97
2022-12-29T08:54:01.801Z,4.53
2022-12-29T08:57:07.020Z,4.47
2022-12-29T09:00:22.093Z,4.17
2022-12-29T09:06:54.166Z,3.60
2022-12-29T09:09:59.564Z,3.30
2022-12-29T09:13:04.498Z,3.13
2022-12-29T09:16:09.995Z,3.10
2022-12-29T09:19:15.502Z,2.80
2022-12-29T09:22:21.855Z,2.50
2022-12-29T09:25:27.081Z,2.30
2022-12-29T09:28:32.201Z,1.77
2022-12-29T09:31:37.475Z,1.80
2022-12-29T09:34:42.669Z,1.40
2022-12-29T09:37:49.706Z,1.80
2022-12-29T09:40:57.960Z,1.83
2022-12-29T09:44:09.372Z,2.03
2022-12-29T09:47:17.114Z,2.37
2022-12-29T09:50:26.796Z,2.23
2022-12-29T09:53:38.816Z,2.50
2022-12-29T09:56:44.076Z,3.03
2022-12-29T09:59:50.455Z,3.30
2022-12-29T10:02:59.034Z,3.73
2022-12-29T10:06:09.481Z,3.60
2022-12-29T10:09:19.837Z,3.93
2022-12-29T10:12:29.715Z,3.53
2022-12-29T10:15:47.856Z,4.17
2022-12-29T10:19:16.924Z,4.27
2022-12-29T10:22:30.069Z,3.87
2022-12-29T10:25:40.502Z,3.43
2022-12-29T10:28:47.651Z,3.47
2022-12-29T10:31:57.409Z,3.10
2022-12-29T10:35:07.941Z,3.00
2022-12-29T10:38:18.305Z,3.00
2022-12-29T10:41:30.079Z,3.13
2022-12-29T10:44:35.818Z,3.10
2022-12-29T10:47:49.704Z,2.60
2022-12-29T10:51:02.046Z,2.40
2022-12-29T10:54:11.474Z,2.60
2022-12-29T10:57:27.157Z,2.70
2022-12-29T11:00:32.330Z,2.40
2022-12-29T11:03:51.016Z,2.10
2022-12-29T11:06:56.284Z,2.43
2022-12-29T11:10:20.189Z,2.27
2022-12-29T11:13:36.556Z,2.13
2022-12-29T11:16:46.220Z,2.50
2022-12-29T11:19:51.692Z,2.40
2022-12-29T11:22:56.952Z,3.83
2022-12-29T11:26:18.268Z,4.30
2022-12-29T11:29:32.149Z,4.00
2022-12-29T11:32:37.393Z,3.60
2022-12-29T11:35:44.641Z,3.63
2022-12-29T11:38:52.302Z,3.20
2022-12-29T11:41:58.511Z,3.57
2022-12-29T11:45:11.093Z,3.30
2022-12-29T11:48:21.038Z,3.20
2022-12-29T11:51:27.770Z,3.30
2022-12-29T11:54:36.168Z,3.27
2022-12-29T11:57:44.813Z,3.40
2022-12-29T12:00:53.644Z,3.13
2022-12-29T12:04:03.963Z,3.77
2022-12-29T12:07:16.269Z,3.33
2022-12-29T12:10:27.478Z,3.70
2022-12-29T12:13:36.140Z,3.43
2022-12-29T12:16:45.899Z,3.30
2022-12-29T12:19:56.038Z,2.97
2022-12-29T12:23:09.626Z,2.67
2022-12-29T12:26:16.221Z,2.83
2022-12-29T12:29:27.322Z,2.77
2022-12-29T12:32:44.259Z,3.10
2022-12-29T12:36:00.803Z,2.67
2022-12-29T12:39:13.351Z,3.27
2022-12-29T12:42:28.500Z,3.20
2022-12-29T12:45:43.917Z,3.17
2022-12-29T12:49:14.377Z,2.77
2022-12-29T12:52:28.652Z,3.03
2022-12-29T12:55:58.874Z,2.80
2022-12-29T12:59:10.079Z,2.90
2022-12-29T13:02:31.015Z,2.93
2022-12-29T13:05:45.166Z,2.87
2022-12-29T13:09:20.125Z,3.10
2022-12-29T13:12:33.924Z,3.20
2022-12-29T13:15:44.088Z,3.30
2022-12-29T13:18:54.826Z,3.50
2022-12-29T13:22:08.205Z,3.20
2022-12-29T13:25:30.310Z,3.20
2022-12-29T13:28:41.191Z,2.90
2022-12-29T13:31:52.129Z,2.70
2022-12-29T13:35:11.598Z,2.10
2022-12-29T13:38:22.269Z,2.50
2022-12-29T13:41:31.934Z,2.13
2022-12-29T13:44:39.826Z,2.30
2022-12-29T13:47:48.752Z,2.17
2022-12-29T13:50:57.487Z,2.20
2022-12-29T13:54:13.687Z,2.03
2022-12-29T13:57:28.657Z,2.10
2022-12-29T14:00:41.037Z,2.20
2022-12-29T14:03:52.192Z,2.00
2022-12-29T14:07:05.656Z,1.90
2022-12-29T14:10:30.268Z,2.00
2022-12-29T14:13:40.292Z,2.27
2022-12-29T14:16:46.959Z,1.90
2022-12-29T14:19:55.884Z,2.70
2022-12-29T14:23:03.382Z,2.80
2022-12-29T14:26:18.627Z,2.40
2022-12-29T14:29:46.387Z,2.53
2022-12-29T14:33:05.062Z,2.30
2022-12-29T14:36:23.579Z,2.90
2022-12-29T14:39:37.602Z,2.70
2022-12-29T14:42:45.321Z,3.10
2022-12-29T14:46:00.516Z,3.23
2022-12-29T14:49:05.866Z,3.60
2022-12-29T14:52:20.123Z,5.37
2022-12-29T14:55:41.676Z,4.00
2022-12-29T14:58:54.409Z,4.40
2022-12-29T15:01:59.909Z,8.43
2022-12-29T15:05:05.954Z,5.93
2022-12-29T15:08:16.117Z,6.70
2022-12-29T15:11:23.005Z,5.87
2022-12-29T15:14:35.289Z,6.43
2022-12-29T15:17:40.581Z,5.10
2022-12-29T15:20:46.233Z,6.27
2022-12-29T15:23:51.847Z,5.50
2022-12-29T15:26:57.673Z,5.40
2022-12-29T15:30:13.831Z,5.17
2022-12-29T15:33:23.400Z,4.87
2022-12-29T15:36:30.836Z,4.43
2022-12-29T15:39:36.571Z,5.17
2022-12-29T15:43:09.297Z,4.60
2022-12-29T15:46:16.306Z,4.23
2022-12-29T15:49:25.035Z,3.93
2022-12-29T15:52:34.249Z,4.10
2022-12-29T15:55:40.388Z,3.60
2022-12-29T15:58:48.700Z,3.70
2022-12-29T16:01:55.646Z,3.50
2022-12-29T16:05:17.346Z,3.77
2022-12-29T16:08:34.844Z,2.80
2022-12-29T16:11:42.510Z,3.10
2022-12-29T16:14:49.594Z,3.30
2022-12-29T16:17:57.015Z,3.20
2022-12-29T16:21:02.242Z,3.30
2022-12-29T16:24:09.976Z,3.27
2022-12-29T16:27:21.565Z,3.50
2022-12-29T16:30:33.478Z,3.70
2022-12-29T16:33:47.350Z,3.63
2022-12-29T16:36:57.688Z,3.87
2022-12-29T16:40:28.674Z,4.03
2022-12-29T16:43:35.966Z,4.53
2022-12-29T16:46:46.149Z,4.00
2022-12-29T16:49:54.872Z,4.33
2022-12-29T16:53:00.148Z,3.70
2022-12-29T16:56:10.602Z,4.03
2022-12-29T16:59:27.763Z,4.50
2022-12-29T17:02:34.681Z,4.73
2022-12-29T17:05:41.744Z,4.30
2022-12-29T17:08:47.666Z,4.10
2022-12-29T17:12:01.642Z,4.87
2022-12-29T17:15:17.454Z,4.17
2022-12-29T17:18:22.884Z,4.00
2022-12-29T17:21:29.427Z,4.83
2022-12-29T17:24:35.265Z,4.00
2022-12-29T17:27:45.043Z,4.27
2022-12-29T17:30:50.736Z,3.90
2022-12-29T17:33:57.409Z,4.23
2022-12-29T17:37:04.341Z,4.53
2022-12-29T17:40:13.918Z,4.50
2022-12-29T17:43:20.345Z,4.43
2022-12-29T17:46:25.707Z,5.13
2022-12-29T17:49:31.334Z,4.23
2022-12-29T17:52:38.054Z,3.87
2022-12-29T17:55:43.956Z,4.47
2022-12-29T17:58:50.847Z,4.67
2022-12-29T18:01:57.022Z,4.57
2022-12-29T18:05:05.935Z,7.63
2022-12-29T18:08:14.415Z,5.63
2022-12-29T18:11:27.008Z,4.47
2022-12-29T18:14:32.543Z,4.53
2022-12-29T18:17:38.126Z,4.83
2022-12-29T18:20:45.595Z,4.10
2022-12-29T18:23:52.695Z,4.50
2022-12-29T18:26:57.761Z,3.90
2022-12-29T18:30:02.939Z,3.80
2022-12-29T18:33:14.140Z,4.47
2022-12-29T18:36:23.627Z,3.43
2022-12-29T18:39:31.391Z,3.63
2022-12-29T18:42:36.839Z,3.80
2022-12-29T18:45:42.718Z,3.97
2022-12-29T18:48:47.871Z,5.63
2022-12-29T18:51:53.777Z,4.10
2022-12-29T18:55:00.653Z,3.70
2022-12-29T18:58:06.305Z,4.40
2022-12-29T19:01:21.937Z,3.73
2022-12-29T19:04:27.947Z,3.90
2022-12-29T19:07:33.846Z,3.83
2022-12-29T19:10:43.139Z,3.90
2022-12-29T19:13:51.703Z,4.00
2022-12-29T19:16:57.337Z,3.67
2022-12-29T19:20:03.747Z,3.60
2022-12-29T19:23:11.020Z,3.47
2022-12-29T19:26:29.242Z,3.50
2022-12-29T19:29:34.392Z,3.03
2022-12-29T19:32:39.841Z,3.20
2022-12-29T19:35:45.525Z,3.67
2022-12-29T19:38:50.960Z,3.50
2022-12-29T19:42:03.498Z,3.37
2022-12-29T19:45:11.166Z,3.70
2022-12-29T19:48:18.409Z,3.43
2022-12-29T19:51:24.004Z,3.03
2022-12-29T19:54:28.855Z,2.77
2022-12-29T19:57:36.037Z,2.97
2022-12-29T20:00:41.377Z,3.00
2022-12-29T20:03:46.729Z,3.00
2022-12-29T20:06:51.927Z,3.00
2022-12-29T20:09:59.081Z,2.57
2022-12-29T20:13:06.380Z,2.63
2022-12-29T20:16:15.656Z,2.60
2022-12-29T20:19:21.004Z,2.73
2022-12-29T20:22:26.565Z,2.63
2022-12-29T20:25:48.634Z,3.10
2022-12-29T20:28:57.572Z,3.07
2022-12-29T20:32:03.106Z,2.57
2022-12-29T20:35:09.396Z,2.57
2022-12-29T20:38:16.134Z,2.70
2022-12-29T20:41:22.947Z,2.70
2022-12-29T20:44:32.728Z,2.53
2022-12-29T20:47:37.813Z,2.83
2022-12-29T20:50:43.304Z,2.77
2022-12-29T20:53:48.877Z,2.83
2022-12-29T20:56:54.634Z,2.67
2022-12-29T21:00:01.106Z,3.00
2022-12-29T21:03:07.143Z,2.73
2022-12-29T21:06:13.021Z,2.60
2022-12-29T21:09:18.162Z,2.90
2022-12-29T21:12:23.309Z,2.47
2022-12-29T21:15:30.780Z,2.37
2022-12-29T21:18:36.228Z,2.50
2022-12-29T21:21:41.353Z,2.63
2022-12-29T21:24:46.559Z,2.33
2022-12-29T21:27:51.911Z,2.60
2022-12-29T21:30:58.423Z,2.60
2022-12-29T21:34:05.053Z,2.43
2022-12-29T21:37:10.269Z,2.20
2022-12-29T21:40:15.534Z,2.43
2022-12-29T21:43:20.691Z,2.70
2022-12-29T21:46:26.250Z,2.47
2022-12-29T21:49:31.398Z,2.00
2022-12-29T21:52:36.672Z,2.40
2022-12-29T21:55:41.866Z,2.30
2022-12-29T21:59:05.990Z,2.40
2022-12-29T22:02:37.436Z,2.50
2022-12-29T22:06:02.447Z,2.40
2022-12-29T22:09:25.142Z,2.30
2022-12-29T22:12:49.017Z,2.20
2022-12-29T22:15:54.258Z,2.30
2022-12-29T22:19:00.870Z,2.20
2022-12-29T22:22:05.984Z,1.90
2022-12-29T22:25:11.652Z,2.43
2022-12-29T22:28:17.145Z,2.40
2022-12-29T22:31:27.575Z,2.00
2022-12-29T22:34:34.831Z,2.17
2022-12-29T22:37:43.456Z,2.40
2022-12-29T22:40:48.620Z,2.30
2022-12-29T22:43:54.009Z,2.00
2022-12-29T22:46:59.145Z,2.00
2022-12-29T22:50:06.454Z,2.17
2022-12-29T22:53:11.982Z,2.00
2022-12-29T22:56:17.218Z,1.70
2022-12-29T22:59:22.454Z,1.97
2022-12-29T23:02:28.268Z,2.27
2022-12-29T23:05:35.101Z,2.00
2022-12-29T23:08:41.124Z,1.90
2022-12-29T23:11:46.862Z,2.20
2022-12-29T23:14:52.026Z,1.97
2022-12-29T23:17:57.209Z,2.07
2022-12-29T23:21:03.558Z,2.10
2022-12-29T23:24:10.316Z,1.90
2022-12-29T23:27:15.470Z,2.17
2022-12-29T23:30:21.291Z,2.00
2022-12-29T23:33:26.527Z,2.17
2022-12-29T23:36:33.466Z,2.20
2022-12-29T23:39:38.586Z,1.63
2022-12-29T23:42:43.854Z,1.93
2022-12-29T23:45:51.193Z,2.20
2022-12-29T23:48:57.036Z,1.90
2022-12-29T23:52:03.780Z,2.00
2022-12-29T23:55:10.925Z,2.17
2022-12-29T23:58:16.091Z,2.17
